createdAt,value
2022-11-02T00:01:48.149Z,10.09
2022-11-02T00:04:15.486Z,10.07
2022-11-02T00:06:42.063Z,9.93
2022-11-02T00:09:08.632Z,9.92
2022-11-02T00:11:37.271Z,10.00
2022-11-02T00:14:04.591Z,10.11
2022-11-02T00:16:31.784Z,10.09
2022-11-02T00:19:01.303Z,10.12
2022-11-02T00:21:28.333Z,10.08
2022-11-02T00:23:57.040Z,10.18
2022-11-02T00:26:24.307Z,10.08
2022-11-02T00:28:50.997Z,10.25
2022-11-02T00:31:17.633Z,10.12
2022-11-02T00:33:44.108Z,10.25
2022-11-02T00:36:10.788Z,10.24
2022-11-02T00:38:37.330Z,10.26
2022-11-02T00:41:04.134Z,10.33
2022-11-02T00:43:30.801Z,10.33
2022-11-02T00:45:57.346Z,10.36
2022-11-02T00:48:23.918Z,10.37
2022-11-02T00:50:50.577Z,10.32
2022-11-02T00:53:17.073Z,10.24
2022-11-02T00:55:43.604Z,10.18
2022-11-02T00:58:10.268Z,10.13
2022-11-02T01:00:37.066Z,9.95
2022-11-02T01:03:03.608Z,10.05
2022-11-02T01:05:30.632Z,10.05
2022-11-02T01:07:57.174Z,10.00
2022-11-02T01:10:26.008Z,9.95
2022-11-02T01:12:52.529Z,9.95
2022-11-02T01:15:19.077Z,9.92
2022-11-02T01:17:45.622Z,9.80
2022-11-02T01:20:12.664Z,9.87
2022-11-02T01:22:39.202Z,9.87
2022-11-02T01:25:05.787Z,9.84
2022-11-02T01:27:32.325Z,9.78
2022-11-02T01:29:58.798Z,9.80
2022-11-02T01:32:25.354Z,9.77
2022-11-02T01:34:51.900Z,9.72
2022-11-02T01:37:18.485Z,9.74
2022-11-02T01:39:45.019Z,9.81
2022-11-02T01:42:22.966Z,9.70
2022-11-02T01:44:49.787Z,9.84
2022-11-02T01:47:38.041Z,9.81
2022-11-02T01:50:09.381Z,9.75
2022-11-02T01:52:37.849Z,9.71
2022-11-02T01:55:19.322Z,9.68
2022-11-02T01:57:52.584Z,9.65
2022-11-02T02:00:19.856Z,9.49
2022-11-02T02:02:52.811Z,9.58
2022-11-02T02:05:22.018Z,9.68
2022-11-02T02:07:50.612Z,9.73
2022-11-02T02:10:17.290Z,9.76
2022-11-02T02:12:44.272Z,9.76
2022-11-02T02:15:12.475Z,9.76
2022-11-02T02:17:59.735Z,9.76
2022-11-02T02:20:45.431Z,9.72
2022-11-02T02:23:38.391Z,9.73
2022-11-02T02:26:32.498Z,9.60
2022-11-02T02:29:21.004Z,9.78
2022-11-02T02:32:15.319Z,9.84
2022-11-02T02:34:55.142Z,9.81
2022-11-02T02:37:27.968Z,9.87
2022-11-02T02:40:02.739Z,9.83
2022-11-02T02:42:46.740Z,9.76
2022-11-02T02:45:28.414Z,9.71
2022-11-02T02:48:01.948Z,9.68
2022-11-02T02:50:35.274Z,9.64
2022-11-02T02:53:06.716Z,9.66
2022-11-02T02:55:40.101Z,9.50
2022-11-02T02:58:12.971Z,9.41
2022-11-02T03:00:40.436Z,9.56
2022-11-02T03:03:07.423Z,9.44
2022-11-02T03:05:36.652Z,9.56
2022-11-02T03:08:08.924Z,9.57
2022-11-02T03:10:48.117Z,9.35
2022-11-02T03:13:22.408Z,9.42
2022-11-02T03:15:59.786Z,9.40
2022-11-02T03:18:26.292Z,9.38
2022-11-02T03:21:20.145Z,9.34
2022-11-02T03:24:03.969Z,9.27
2022-11-02T03:26:40.644Z,9.13
2022-11-02T03:29:10.377Z,9.29
2022-11-02T03:31:39.123Z,9.29
2022-11-02T03:34:15.466Z,9.28
2022-11-02T03:37:11.183Z,9.28
2022-11-02T03:39:47.137Z,9.12
2022-11-02T03:42:18.921Z,9.20
2022-11-02T03:44:50.830Z,9.19
2022-11-02T03:47:20.498Z,9.14
2022-11-02T03:49:50.227Z,9.13
2022-11-02T03:52:23.433Z,9.10
2022-11-02T03:55:11.022Z,9.08
2022-11-02T03:57:43.521Z,9.09
2022-11-02T04:00:13.787Z,9.12
2022-11-02T04:02:42.700Z,9.19
2022-11-02T04:05:09.369Z,9.23
2022-11-02T04:07:59.470Z,9.26
2022-11-02T04:10:26.299Z,9.28
2022-11-02T04:13:11.712Z,9.31
2022-11-02T04:15:38.304Z,9.17
2022-11-02T04:18:23.316Z,9.33
2022-11-02T04:20:52.665Z,9.37
2022-11-02T04:23:38.024Z,9.40
2022-11-02T04:26:05.567Z,9.46
2022-11-02T04:28:32.085Z,9.50
2022-11-02T04:31:02.198Z,9.54
2022-11-02T04:33:35.152Z,9.58
2022-11-02T04:36:07.955Z,9.70
2022-11-02T04:38:43.459Z,9.65
2022-11-02T04:41:31.984Z,9.75
2022-11-02T04:43:59.316Z,9.76
2022-11-02T04:46:28.417Z,9.74
2022-11-02T04:48:55.512Z,9.65
2022-11-02T04:51:23.467Z,9.61
2022-11-02T04:53:51.728Z,9.57
2022-11-02T04:56:18.568Z,9.51
2022-11-02T04:58:50.562Z,9.65
2022-11-02T05:01:18.026Z,9.63
2022-11-02T05:03:48.006Z,9.62
2022-11-02T05:06:15.051Z,9.57
2022-11-02T05:08:41.744Z,9.56
2022-11-02T05:11:09.169Z,9.46
2022-11-02T05:13:36.148Z,9.47
2022-11-02T05:16:02.747Z,9.38
2022-11-02T05:18:29.735Z,9.42
2022-11-02T05:20:59.147Z,9.40
2022-11-02T05:23:26.290Z,9.36
2022-11-02T05:25:57.610Z,9.32
2022-11-02T05:28:25.442Z,9.27
2022-11-02T05:30:53.161Z,9.28
2022-11-02T05:33:20.422Z,9.27
2022-11-02T05:35:47.147Z,9.24
2022-11-02T05:38:13.789Z,9.22
2022-11-02T05:40:40.883Z,9.21
2022-11-02T05:43:08.927Z,9.22
2022-11-02T05:45:36.785Z,9.21
2022-11-02T05:48:06.735Z,9.20
2022-11-02T05:50:33.604Z,9.18
2022-11-02T05:53:00.208Z,9.21
2022-11-02T05:55:27.033Z,9.21
2022-11-02T05:57:55.186Z,9.31
2022-11-02T06:00:22.955Z,9.27
2022-11-02T06:02:49.756Z,9.21
2022-11-02T06:05:16.647Z,9.14
2022-11-02T06:07:43.498Z,9.11
2022-11-02T06:10:10.042Z,9.09
2022-11-02T06:12:36.632Z,9.15
2022-11-02T06:15:03.236Z,9.22
2022-11-02T06:17:37.125Z,9.05
2022-11-02T06:20:03.972Z,9.16
2022-11-02T06:22:30.520Z,9.16
2022-11-02T06:24:57.019Z,9.16
2022-11-02T06:27:23.638Z,9.22
2022-11-02T06:29:50.142Z,9.32
2022-11-02T06:32:17.675Z,9.28
2022-11-02T06:34:44.344Z,9.36
2022-11-02T06:37:10.933Z,9.37
2022-11-02T06:42:09.000Z,9.43
2022-11-02T06:44:35.630Z,9.38
2022-11-02T06:47:02.395Z,9.36
2022-11-02T06:49:28.989Z,9.42
2022-11-02T06:51:55.619Z,9.45
2022-11-02T06:54:23.901Z,9.55
2022-11-02T06:56:50.652Z,9.59
2022-11-02T06:59:17.233Z,9.55
2022-11-02T07:01:44.417Z,9.49
2022-11-02T07:04:11.441Z,9.41
2022-11-02T07:06:38.211Z,9.49
2022-11-02T07:09:04.712Z,9.46
2022-11-02T07:11:31.403Z,9.49
2022-11-02T07:13:58.191Z,9.55
2022-11-02T07:16:25.299Z,9.63
2022-11-02T07:18:51.867Z,9.71
2022-11-02T07:23:44.949Z,9.67
2022-11-02T07:26:11.600Z,9.78
2022-11-02T07:28:38.485Z,9.86
2022-11-02T07:31:05.678Z,9.85
2022-11-02T07:33:32.331Z,9.86
2022-11-02T07:35:58.830Z,9.81
2022-11-02T07:38:25.389Z,9.95
2022-11-02T07:40:51.921Z,9.99
2022-11-02T07:43:18.568Z,10.02
2022-11-02T07:45:45.133Z,10.18
2022-11-02T07:48:11.740Z,10.44
2022-11-02T07:50:38.376Z,10.55
2022-11-02T07:53:05.220Z,10.68
2022-11-02T07:55:32.636Z,10.81
2022-11-02T07:58:09.133Z,10.72
2022-11-02T08:00:38.080Z,10.64
2022-11-02T08:03:06.705Z,10.62
2022-11-02T08:05:35.478Z,10.57
2022-11-02T08:08:10.932Z,10.56
2022-11-02T08:10:40.340Z,10.47
2022-11-02T08:13:09.297Z,10.61
2022-11-02T08:15:36.247Z,10.61
2022-11-02T08:18:04.319Z,10.69
2022-11-02T08:20:32.318Z,10.80
2022-11-02T08:22:58.862Z,10.85
2022-11-02T08:25:26.101Z,10.97
2022-11-02T08:27:57.033Z,11.06
2022-11-02T08:30:23.752Z,11.17
2022-11-02T08:32:54.043Z,11.19
2022-11-02T08:35:23.637Z,11.43
2022-11-02T08:37:57.325Z,11.63
2022-11-02T08:40:24.257Z,11.79
2022-11-02T08:42:58.158Z,11.91
2022-11-02T08:45:25.230Z,11.93
2022-11-02T08:47:51.873Z,11.86
2022-11-02T08:50:18.507Z,11.84
2022-11-02T08:52:45.118Z,11.85
2022-11-02T08:55:11.772Z,11.92
2022-11-02T08:58:08.025Z,12.12
2022-11-02T09:00:35.890Z,12.30
2022-11-02T09:03:07.045Z,12.53
2022-11-02T09:05:41.820Z,12.65
2022-11-02T09:08:12.086Z,12.81
2022-11-02T09:10:38.713Z,12.95
2022-11-02T09:13:07.842Z,12.91
2022-11-02T09:15:36.701Z,13.16
2022-11-02T09:18:04.826Z,13.27
2022-11-02T09:20:32.655Z,13.40
2022-11-02T09:22:59.444Z,13.51
2022-11-02T09:25:26.315Z,13.58
2022-11-02T09:27:55.752Z,13.58
2022-11-02T09:30:24.074Z,13.52
2022-11-02T09:32:58.921Z,13.70
2022-11-02T09:35:27.583Z,13.84
2022-11-02T09:37:54.156Z,13.94
2022-11-02T09:40:23.093Z,13.83
2022-11-02T09:42:58.602Z,13.84
2022-11-02T09:45:25.452Z,13.78
2022-11-02T09:50:54.276Z,14.34
2022-11-02T09:53:48.957Z,14.57
2022-11-02T09:56:20.021Z,14.31
2022-11-02T09:58:53.523Z,14.17
2022-11-02T10:01:26.083Z,14.20
2022-11-02T10:04:08.175Z,14.23
2022-11-02T10:06:38.523Z,14.16
2022-11-02T10:09:18.349Z,14.19
2022-11-02T10:11:58.360Z,14.36
2022-11-02T10:14:32.149Z,14.37
2022-11-02T10:17:18.987Z,14.28
2022-11-02T10:19:52.194Z,14.45
2022-11-02T10:22:19.329Z,14.39
2022-11-02T10:24:47.905Z,14.41
2022-11-02T10:27:27.242Z,14.25
2022-11-02T10:30:18.254Z,14.16
2022-11-02T10:32:47.597Z,13.97
2022-11-02T10:35:51.432Z,13.84
2022-11-02T10:38:42.038Z,13.86
2022-11-02T10:41:17.565Z,13.98
2022-11-02T10:44:01.633Z,14.11
2022-11-02T10:46:46.516Z,14.10
2022-11-02T10:49:16.053Z,14.19
2022-11-02T10:51:42.737Z,14.32
2022-11-02T10:54:17.696Z,14.45
2022-11-02T10:56:49.297Z,14.41
2022-11-02T10:59:23.715Z,14.69
2022-11-02T11:01:56.499Z,14.79
2022-11-02T11:04:28.094Z,14.83
2022-11-02T11:06:56.684Z,14.99
2022-11-02T11:09:26.276Z,15.02
2022-11-02T11:12:01.783Z,14.97
2022-11-02T11:20:36.490Z,14.97
2022-11-02T11:23:15.563Z,15.25
2022-11-02T11:25:42.904Z,15.45
2022-11-02T11:28:30.030Z,15.58
2022-11-02T11:31:05.160Z,15.59
2022-11-02T11:33:33.616Z,15.40
2022-11-02T11:36:00.728Z,15.50
2022-11-02T11:38:27.793Z,15.41
2022-11-02T11:40:58.892Z,15.52
2022-11-02T11:43:28.327Z,15.77
2022-11-02T11:46:07.305Z,15.55
2022-11-02T11:48:39.028Z,15.49
2022-11-02T11:51:25.666Z,15.73
2022-11-02T11:54:23.945Z,16.12
2022-11-02T11:56:53.034Z,16.20
2022-11-02T11:59:21.189Z,16.20
2022-11-02T12:01:48.608Z,16.11
2022-11-02T12:04:27.448Z,15.79
2022-11-02T12:07:16.004Z,15.83
2022-11-02T12:10:07.731Z,15.66
2022-11-02T12:13:03.472Z,15.53
2022-11-02T12:15:49.433Z,15.19
2022-11-02T12:18:49.523Z,15.13
2022-11-02T12:21:34.859Z,15.26
2022-11-02T12:24:06.292Z,15.30
2022-11-02T12:27:24.148Z,15.42
2022-11-02T12:30:09.308Z,15.51
2022-11-02T12:32:38.484Z,15.70
2022-11-02T12:35:28.935Z,15.74
2022-11-02T12:38:24.011Z,15.56
2022-11-02T12:41:24.004Z,15.23
2022-11-02T12:44:05.699Z,15.21
2022-11-02T12:46:39.718Z,15.08
2022-11-02T12:49:36.085Z,14.93
2022-11-02T12:52:37.705Z,15.00
2022-11-02T12:55:16.718Z,15.00
2022-11-02T12:57:44.248Z,15.03
2022-11-02T13:00:20.755Z,14.95
2022-11-02T13:03:20.731Z,15.08
2022-11-02T13:05:54.225Z,15.11
2022-11-02T13:08:34.923Z,15.13
2022-11-02T13:11:06.588Z,15.17
2022-11-02T13:13:42.256Z,15.16
2022-11-02T13:16:10.881Z,15.06
2022-11-02T13:18:47.760Z,14.94
2022-11-02T13:21:18.469Z,14.88
2022-11-02T13:23:53.634Z,14.87
2022-11-02T13:26:32.265Z,14.96
2022-11-02T13:29:09.461Z,15.02
2022-11-02T13:31:41.532Z,15.08
2022-11-02T13:34:15.684Z,15.15
2022-11-02T13:36:42.645Z,15.15
2022-11-02T13:39:14.037Z,15.15
2022-11-02T13:42:02.267Z,15.19
2022-11-02T13:44:49.802Z,15.21
2022-11-02T13:47:31.451Z,15.07
2022-11-02T13:49:59.962Z,15.16
2022-11-02T13:52:40.418Z,15.12
2022-11-02T13:55:09.707Z,15.05
2022-11-02T13:57:38.780Z,14.87
2022-11-02T14:00:26.621Z,14.92
2022-11-02T14:03:03.415Z,15.02
2022-11-02T14:05:44.450Z,15.04
2022-11-02T14:08:21.050Z,14.99
2022-11-02T14:11:03.711Z,15.01
2022-11-02T14:13:52.348Z,14.98
2022-11-02T14:16:40.451Z,14.92
2022-11-02T14:19:48.502Z,14.85
2022-11-02T14:22:18.036Z,14.81
2022-11-02T14:24:49.377Z,14.78
2022-11-02T14:27:16.647Z,14.61
2022-11-02T14:29:46.196Z,14.86
2022-11-02T14:32:22.371Z,14.87
2022-11-02T14:35:13.329Z,14.90
2022-11-02T14:37:45.817Z,14.76
2022-11-02T14:40:40.684Z,14.85
2022-11-02T14:43:42.214Z,14.81
2022-11-02T14:46:39.370Z,14.62
2022-11-02T14:49:15.335Z,14.65
2022-11-02T14:51:42.748Z,14.72
2022-11-02T14:54:18.690Z,14.68
2022-11-02T14:56:51.294Z,14.61
2022-11-02T14:59:28.209Z,14.58
2022-11-02T15:02:01.981Z,14.59
2022-11-02T15:04:31.396Z,14.60
2022-11-02T15:07:01.196Z,14.56
2022-11-02T15:09:56.320Z,14.56
2022-11-02T15:12:41.115Z,14.52
2022-11-02T15:15:26.120Z,14.38
2022-11-02T15:17:56.758Z,14.43
2022-11-02T15:20:28.334Z,14.41
2022-11-02T15:23:09.154Z,14.36
2022-11-02T15:25:40.358Z,14.33
2022-11-02T15:28:08.338Z,14.30
2022-11-02T15:30:45.043Z,14.25
2022-11-02T15:33:19.246Z,14.13
2022-11-02T15:35:47.846Z,14.08
2022-11-02T15:38:19.295Z,14.00
2022-11-02T15:40:58.115Z,13.86
2022-11-02T15:43:51.559Z,13.98
2022-11-02T15:46:44.322Z,13.91
2022-11-02T15:49:23.052Z,13.84
2022-11-02T15:52:13.991Z,13.74
2022-11-02T15:54:46.040Z,13.66
2022-11-02T15:57:45.703Z,13.58
2022-11-02T16:00:17.778Z,13.47
2022-11-02T16:02:52.764Z,13.39
2022-11-02T16:05:23.550Z,13.38
2022-11-02T16:08:12.317Z,13.28
2022-11-02T16:10:38.332Z,13.27
2022-11-02T16:13:08.054Z,13.26
2022-11-02T16:15:34.563Z,13.16
2022-11-02T16:18:01.643Z,13.04
2022-11-02T16:20:34.468Z,13.10
2022-11-02T16:23:03.660Z,13.04
2022-11-02T16:25:41.476Z,13.04
2022-11-02T16:28:18.659Z,13.02
2022-11-02T16:31:15.858Z,12.97
2022-11-02T16:34:03.457Z,12.97
2022-11-02T16:36:34.821Z,12.97
2022-11-02T16:39:13.292Z,12.96
2022-11-02T16:41:41.181Z,12.94
2022-11-02T16:44:10.150Z,12.84
2022-11-02T16:46:49.715Z,12.82
2022-11-02T16:49:21.283Z,12.81
2022-11-02T16:51:53.004Z,12.83
2022-11-02T16:54:42.865Z,12.86
2022-11-02T16:57:12.599Z,12.80
2022-11-02T16:59:52.379Z,12.71
2022-11-02T17:02:24.902Z,12.63
2022-11-02T17:04:57.960Z,12.64
2022-11-02T17:07:33.773Z,12.61
2022-11-02T17:10:02.849Z,12.55
2022-11-02T17:12:41.981Z,12.53
2022-11-02T17:15:17.613Z,12.51
2022-11-02T17:17:44.371Z,12.45
2022-11-02T17:20:11.909Z,12.46
2022-11-02T17:22:50.889Z,12.42
2022-11-02T17:25:24.259Z,12.40
2022-11-02T17:27:52.758Z,12.34
2022-11-02T17:30:34.334Z,12.30
2022-11-02T17:33:17.675Z,12.36
2022-11-02T17:35:52.671Z,12.31
2022-11-02T17:38:23.876Z,12.26
2022-11-02T17:40:52.306Z,12.25
2022-11-02T17:43:20.572Z,12.25
2022-11-02T17:45:54.234Z,12.24
2022-11-02T17:48:20.765Z,12.25
2022-11-02T17:50:47.919Z,12.33
2022-11-02T17:53:14.540Z,12.22
2022-11-02T17:55:41.158Z,12.30
2022-11-02T17:58:07.998Z,12.27
2022-11-02T18:00:36.391Z,12.22
2022-11-02T18:03:03.437Z,12.09
2022-11-02T18:05:35.334Z,12.18
2022-11-02T18:08:03.446Z,12.15
2022-11-02T18:10:37.463Z,12.19
2022-11-02T18:13:05.724Z,12.15
2022-11-02T18:15:37.275Z,12.11
2022-11-02T18:18:04.294Z,12.15
2022-11-02T18:20:32.903Z,12.01
2022-11-02T18:23:01.012Z,12.12
2022-11-02T18:25:32.702Z,12.09
2022-11-02T18:28:01.191Z,12.05
2022-11-02T18:30:29.317Z,12.01
2022-11-02T18:32:57.146Z,11.94
2022-11-02T18:35:24.677Z,11.91
2022-11-02T18:37:51.450Z,11.93
2022-11-02T18:40:19.846Z,11.76
2022-11-02T18:42:47.161Z,11.71
2022-11-02T18:45:15.636Z,11.77
2022-11-02T18:47:42.760Z,11.69
2022-11-02T18:50:12.280Z,11.71
2022-11-02T18:52:39.119Z,11.68
2022-11-02T18:55:06.155Z,11.63
2022-11-02T18:57:32.970Z,11.54
2022-11-02T19:00:02.495Z,11.51
2022-11-02T19:02:29.732Z,11.45
2022-11-02T19:04:56.345Z,11.41
2022-11-02T19:07:41.846Z,11.35
2022-11-02T19:10:08.990Z,11.23
2022-11-02T19:12:38.684Z,11.10
2022-11-02T19:15:06.094Z,10.96
2022-11-02T19:17:35.307Z,10.87
2022-11-02T19:20:01.878Z,10.75
2022-11-02T19:22:28.523Z,10.64
2022-11-02T19:24:55.141Z,10.57
2022-11-02T19:27:35.979Z,10.39
2022-11-02T19:30:02.508Z,10.29
2022-11-02T19:32:38.266Z,10.23
2022-11-02T19:35:05.371Z,10.15
2022-11-02T19:37:35.142Z,10.10
2022-11-02T19:40:04.630Z,10.06
2022-11-02T19:42:39.070Z,10.06
2022-11-02T19:45:23.829Z,10.09
2022-11-02T19:47:51.822Z,10.04
2022-11-02T19:50:18.489Z,9.99
2022-11-02T19:52:46.417Z,9.90
2022-11-02T19:55:13.016Z,9.86
2022-11-02T19:57:41.160Z,9.78
2022-11-02T20:00:08.968Z,9.84
2022-11-02T20:02:37.645Z,9.68
2022-11-02T20:05:06.165Z,9.72
2022-11-02T20:07:32.864Z,9.64
2022-11-02T20:10:00.579Z,9.65
2022-11-02T20:12:29.749Z,9.61
2022-11-02T20:14:56.635Z,9.63
2022-11-02T20:17:31.975Z,9.57
2022-11-02T20:20:04.838Z,9.43
2022-11-02T20:22:33.601Z,9.31
2022-11-02T20:25:00.269Z,9.23
2022-11-02T20:27:30.266Z,9.19
2022-11-02T20:29:57.439Z,9.13
2022-11-02T20:32:24.300Z,9.21
2022-11-02T20:34:51.088Z,9.24
2022-11-02T20:37:19.415Z,9.22
2022-11-02T20:39:46.089Z,9.21
2022-11-02T20:42:14.827Z,9.19
2022-11-02T20:44:41.638Z,9.21
2022-11-02T20:47:08.223Z,9.04
2022-11-02T20:49:49.879Z,9.13
2022-11-02T20:52:18.641Z,9.15
2022-11-02T20:54:47.744Z,9.00
2022-11-02T20:57:15.514Z,9.11
2022-11-02T20:59:43.740Z,8.82
2022-11-02T21:02:11.617Z,8.84
2022-11-02T21:04:38.683Z,8.72
2022-11-02T21:07:05.332Z,8.67
2022-11-02T21:09:32.008Z,8.65
2022-11-02T21:12:17.497Z,8.66
2022-11-02T21:14:44.129Z,8.71
2022-11-02T21:17:10.752Z,8.69
2022-11-02T21:19:37.460Z,8.76
2022-11-02T21:22:04.266Z,8.78
2022-11-02T21:24:31.953Z,8.68
2022-11-02T21:26:58.611Z,8.68
2022-11-02T21:29:25.280Z,8.87
2022-11-02T21:31:51.995Z,8.89
2022-11-02T21:34:18.643Z,8.86
2022-11-02T21:36:45.257Z,8.73
2022-11-02T21:39:12.035Z,8.85
2022-11-02T21:41:39.050Z,8.88
2022-11-02T21:44:07.229Z,8.89
2022-11-02T21:46:33.993Z,8.87
2022-11-02T21:49:00.927Z,8.78
2022-11-02T21:51:28.573Z,8.64
2022-11-02T21:53:56.604Z,8.77
2022-11-02T21:56:27.699Z,8.76
2022-11-02T21:58:55.570Z,8.66
2022-11-02T22:01:48.325Z,8.73
2022-11-02T22:04:28.158Z,8.65
2022-11-02T22:06:55.851Z,8.58
2022-11-02T22:09:22.864Z,8.64
2022-11-02T22:12:09.577Z,8.58
2022-11-02T22:14:40.245Z,8.38
2022-11-02T22:17:16.418Z,8.57
2022-11-02T22:19:53.753Z,8.55
2022-11-02T22:22:20.335Z,8.37
2022-11-02T22:24:47.621Z,8.46
2022-11-02T22:27:14.195Z,8.51
2022-11-02T22:29:40.759Z,8.54
2022-11-02T22:32:07.238Z,8.66
2022-11-02T22:34:33.815Z,8.70
2022-11-02T22:37:20.287Z,8.73
2022-11-02T22:39:46.816Z,8.71
2022-11-02T22:42:13.372Z,8.56
2022-11-02T22:44:39.924Z,8.69
2022-11-02T22:47:06.404Z,8.64
2022-11-02T22:49:32.957Z,8.68
2022-11-02T22:51:59.567Z,8.66
2022-11-02T22:54:26.133Z,8.64
2022-11-02T22:56:52.667Z,8.58
2022-11-02T22:59:20.854Z,8.62
2022-11-02T23:01:47.519Z,8.57
2022-11-02T23:04:14.322Z,8.46
2022-11-02T23:06:40.818Z,8.35
2022-11-02T23:09:07.876Z,8.29
2022-11-02T23:11:36.757Z,8.25
2022-11-02T23:14:06.550Z,8.18
2022-11-02T23:16:38.671Z,8.14
2022-11-02T23:19:23.541Z,8.08
2022-11-02T23:22:31.559Z,8.03
2022-11-02T23:25:18.010Z,8.03
2022-11-02T23:28:05.621Z,8.03
2022-11-02T23:30:55.505Z,8.09
2022-11-02T23:33:24.375Z,8.02
2022-11-02T23:36:09.444Z,8.19
2022-11-02T23:38:54.818Z,8.12
2022-11-02T23:41:21.466Z,8.28
2022-11-02T23:43:48.408Z,8.22
2022-11-02T23:46:16.064Z,8.27
2022-11-02T23:48:42.850Z,8.25
2022-11-02T23:51:29.246Z,8.21
2022-11-02T23:54:14.805Z,8.33
2022-11-02T23:56:44.623Z,8.26
2022-11-02T23:59:11.510Z,8.29
